sensor_id;sensor_type;location;lat;lon;timestamp;pressure;altitude;pressure_sealevel;temperature
24639;BMP180;1641;51.306;12.384;2022-12-18T00:00:57;101607.00;;;-4.40
24639;BMP180;1641;51.306;12.384;2022-12-18T00:03:22;101607.00;;;-4.70
24639;BMP180;1641;51.306;12.384;2022-12-18T00:05:49;101593.00;;;-4.60
24639;BMP180;1641;51.306;12.384;2022-12-18T00:08:15;101604.00;;;-4.50
24639;BMP180;1641;51.306;12.384;2022-12-18T00:10:40;101606.00;;;-4.80
24639;BMP180;1641;51.306;12.384;2022-12-18T00:13:06;101609.00;;;-4.90
24639;BMP180;1641;51.306;12.384;2022-12-18T00:15:34;101599.00;;;-4.70
24639;BMP180;1641;51.306;12.384;2022-12-18T00:17:59;101614.00;;;-4.90
24639;BMP180;1641;51.306;12.384;2022-12-18T00:20:24;101608.00;;;-4.90
24639;BMP180;1641;51.306;12.384;2022-12-18T00:22:52;101609.00;;;-5.00
24639;BMP180;1641;51.306;12.384;2022-12-18T00:25:17;101609.00;;;-4.60
24639;BMP180;1641;51.306;12.384;2022-12-18T00:27:42;101605.00;;;-4.30
24639;BMP180;1641;51.306;12.384;2022-12-18T00:30:08;101613.00;;;-4.20
24639;BMP180;1641;51.306;12.384;2022-12-18T00:32:34;101600.00;;;-4.20
24639;BMP180;1641;51.306;12.384;2022-12-18T00:34:59;101598.00;;;-4.30
24639;BMP180;1641;51.306;12.384;2022-12-18T00:37:24;101599.00;;;-4.30
24639;BMP180;1641;51.306;12.384;2022-12-18T00:39:50;101581.00;;;-4.30
24639;BMP180;1641;51.306;12.384;2022-12-18T00:42:15;101596.00;;;-4.20
24639;BMP180;1641;51.306;12.384;2022-12-18T00:44:59;101590.00;;;-4.70
24639;BMP180;1641;51.306;12.384;2022-12-18T00:47:24;101606.00;;;-4.70
24639;BMP180;1641;51.306;12.384;2022-12-18T00:49:49;101606.00;;;-4.90
24639;BMP180;1641;51.306;12.384;2022-12-18T00:52:14;101614.00;;;-5.10
24639;BMP180;1641;51.306;12.384;2022-12-18T00:54:40;101596.00;;;-4.80
24639;BMP180;1641;51.306;12.384;2022-12-18T00:57:14;101613.00;;;-4.50
24639;BMP180;1641;51.306;12.384;2022-12-18T00:59:39;101620.00;;;-4.60
24639;BMP180;1641;51.306;12.384;2022-12-18T01:02:05;101614.00;;;-4.80
24639;BMP180;1641;51.306;12.384;2022-12-18T01:04:33;101618.00;;;-5.10
24639;BMP180;1641;51.306;12.384;2022-12-18T01:06:59;101599.00;;;-5.20
24639;BMP180;1641;51.306;12.384;2022-12-18T01:09:24;101617.00;;;-5.20
24639;BMP180;1641;51.306;12.384;2022-12-18T01:11:49;101609.00;;;-5.20
24639;BMP180;1641;51.306;12.384;2022-12-18T01:14:15;101621.00;;;-5.20
24639;BMP180;1641;51.306;12.384;2022-12-18T01:16:40;101621.00;;;-5.20
24639;BMP180;1641;51.306;12.384;2022-12-18T01:19:05;101635.00;;;-5.30
24639;BMP180;1641;51.306;12.384;2022-12-18T01:21:31;101626.00;;;-5.40
24639;BMP180;1641;51.306;12.384;2022-12-18T01:23:56;101631.00;;;-5.20
24639;BMP180;1641;51.306;12.384;2022-12-18T01:26:25;101630.00;;;-5.30
24639;BMP180;1641;51.306;12.384;2022-12-18T01:28:50;101581.00;;;-5.20
24639;BMP180;1641;51.306;12.384;2022-12-18T01:31:19;101632.00;;;-5.40
24639;BMP180;1641;51.306;12.384;2022-12-18T01:33:47;101640.00;;;-5.30
24639;BMP180;1641;51.306;12.384;2022-12-18T01:36:53;101639.00;;;-5.20
24639;BMP180;1641;51.306;12.384;2022-12-18T01:39:12;101651.00;;;-5.10
24639;BMP180;1641;51.306;12.384;2022-12-18T01:41:38;101646.00;;;-5.10
24639;BMP180;1641;51.306;12.384;2022-12-18T01:45:02;101653.00;;;-4.90
24639;BMP180;1641;51.306;12.384;2022-12-18T01:47:48;101640.00;;;-5.10
24639;BMP180;1641;51.306;12.384;2022-12-18T01:52:51;101660.00;;;-5.40
24639;BMP180;1641;51.306;12.384;2022-12-18T01:55:24;101657.00;;;-4.90
24639;BMP180;1641;51.306;12.384;2022-12-18T01:57:52;101647.00;;;-5.00
24639;BMP180;1641;51.306;12.384;2022-12-18T02:00:20;101660.00;;;-5.10
24639;BMP180;1641;51.306;12.384;2022-12-18T02:02:46;101620.00;;;-5.20
24639;BMP180;1641;51.306;12.384;2022-12-18T02:05:15;101657.00;;;-4.90
24639;BMP180;1641;51.306;12.384;2022-12-18T02:10:27;101664.00;;;-5.00
24639;BMP180;1641;51.306;12.384;2022-12-18T02:18:27;101658.00;;;-4.70
24639;BMP180;1641;51.306;12.384;2022-12-18T02:21:01;101662.00;;;-4.60
24639;BMP180;1641;51.306;12.384;2022-12-18T02:26:18;101659.00;;;-4.70
24639;BMP180;1641;51.306;12.384;2022-12-18T02:29:13;101656.00;;;-4.60
24639;BMP180;1641;51.306;12.384;2022-12-18T02:31:45;101664.00;;;-4.80
24639;BMP180;1641;51.306;12.384;2022-12-18T02:34:16;101647.00;;;-5.00
24639;BMP180;1641;51.306;12.384;2022-12-18T02:36:44;101655.00;;;-5.00
24639;BMP180;1641;51.306;12.384;2022-12-18T02:39:11;101656.00;;;-4.60
24639;BMP180;1641;51.306;12.384;2022-12-18T02:41:38;101658.00;;;-4.70
24639;BMP180;1641;51.306;12.384;2022-12-18T02:44:08;101655.00;;;-4.40
24639;BMP180;1641;51.306;12.384;2022-12-18T02:46:44;101646.00;;;-4.90
24639;BMP180;1641;51.306;12.384;2022-12-18T02:49:25;101646.00;;;-5.10
24639;BMP180;1641;51.306;12.384;2022-12-18T02:51:55;101642.00;;;-5.00
24639;BMP180;1641;51.306;12.384;2022-12-18T02:57:07;101655.00;;;-4.80
24639;BMP180;1641;51.306;12.384;2022-12-18T02:59:43;101667.00;;;-5.00
24639;BMP180;1641;51.306;12.384;2022-12-18T03:02:40;101667.00;;;-5.10
24639;BMP180;1641;51.306;12.384;2022-12-18T03:05:16;101664.00;;;-5.10
24639;BMP180;1641;51.306;12.384;2022-12-18T03:11:03;101633.00;;;-4.70
24639;BMP180;1641;51.306;12.384;2022-12-18T03:13:35;101668.00;;;-4.60
24639;BMP180;1641;51.306;12.384;2022-12-18T03:16:03;101630.00;;;-5.00
24639;BMP180;1641;51.306;12.384;2022-12-18T03:18:37;101668.00;;;-4.90
24639;BMP180;1641;51.306;12.384;2022-12-18T03:21:05;101651.00;;;-4.70
24639;BMP180;1641;51.306;12.384;2022-12-18T03:23:40;101681.00;;;-4.80
24639;BMP180;1641;51.306;12.384;2022-12-18T03:26:10;101655.00;;;-4.90
24639;BMP180;1641;51.306;12.384;2022-12-18T03:28:39;101687.00;;;-4.70
24639;BMP180;1641;51.306;12.384;2022-12-18T03:31:10;101684.00;;;-4.80
24639;BMP180;1641;51.306;12.384;2022-12-18T03:34:03;101687.00;;;-4.70
24639;BMP180;1641;51.306;12.384;2022-12-18T03:36:30;101686.00;;;-4.90
24639;BMP180;1641;51.306;12.384;2022-12-18T03:38:55;101693.00;;;-4.90
24639;BMP180;1641;51.306;12.384;2022-12-18T03:41:32;101689.00;;;-4.80
24639;BMP180;1641;51.306;12.384;2022-12-18T03:44:12;101693.00;;;-4.90
24639;BMP180;1641;51.306;12.384;2022-12-18T03:51:51;101680.00;;;-4.90
24639;BMP180;1641;51.306;12.384;2022-12-18T03:54:18;101677.00;;;-4.90
24639;BMP180;1641;51.306;12.384;2022-12-18T03:56:46;101676.00;;;-4.90
24639;BMP180;1641;51.306;12.384;2022-12-18T03:59:15;101676.00;;;-4.70
24639;BMP180;1641;51.306;12.384;2022-12-18T04:01:45;101634.00;;;-4.90
24639;BMP180;1641;51.306;12.384;2022-12-18T04:04:12;101681.00;;;-4.80
24639;BMP180;1641;51.306;12.384;2022-12-18T04:06:40;101679.00;;;-4.90
24639;BMP180;1641;51.306;12.384;2022-12-18T04:09:05;101683.00;;;-4.80
24639;BMP180;1641;51.306;12.384;2022-12-18T04:11:31;101681.00;;;-5.00
24639;BMP180;1641;51.306;12.384;2022-12-18T04:13:57;101679.00;;;-5.10
24639;BMP180;1641;51.306;12.384;2022-12-18T04:16:24;101679.00;;;-5.20
24639;BMP180;1641;51.306;12.384;2022-12-18T04:18:49;101683.00;;;-4.80
24639;BMP180;1641;51.306;12.384;2022-12-18T04:21:15;101670.00;;;-5.00
24639;BMP180;1641;51.306;12.384;2022-12-18T04:23:43;101678.00;;;-5.00
24639;BMP180;1641;51.306;12.384;2022-12-18T04:26:08;101661.00;;;-5.00
24639;BMP180;1641;51.306;12.384;2022-12-18T04:28:33;101670.00;;;-5.00
24639;BMP180;1641;51.306;12.384;2022-12-18T04:30:59;101666.00;;;-5.10
24639;BMP180;1641;51.306;12.384;2022-12-18T04:33:24;101672.00;;;-5.40
24639;BMP180;1641;51.306;12.384;2022-12-18T04:35:52;101676.00;;;-5.30
24639;BMP180;1641;51.306;12.384;2022-12-18T04:38:17;101676.00;;;-5.30
24639;BMP180;1641;51.306;12.384;2022-12-18T04:40:43;101660.00;;;-5.40
24639;BMP180;1641;51.306;12.384;2022-12-18T04:43:08;101671.00;;;-5.10
24639;BMP180;1641;51.306;12.384;2022-12-18T04:45:36;101670.00;;;-5.20
24639;BMP180;1641;51.306;12.384;2022-12-18T04:48:02;101670.00;;;-5.00
24639;BMP180;1641;51.306;12.384;2022-12-18T04:50:29;101671.00;;;-5.00
24639;BMP180;1641;51.306;12.384;2022-12-18T04:52:56;101675.00;;;-5.10
24639;BMP180;1641;51.306;12.384;2022-12-18T04:55:21;101671.00;;;-5.20
24639;BMP180;1641;51.306;12.384;2022-12-18T04:57:46;101673.00;;;-5.00
24639;BMP180;1641;51.306;12.384;2022-12-18T05:00:12;101673.00;;;-5.10
24639;BMP180;1641;51.306;12.384;2022-12-18T05:02:38;101671.00;;;-5.10
24639;BMP180;1641;51.306;12.384;2022-12-18T05:05:03;101667.00;;;-5.20
24639;BMP180;1641;51.306;12.384;2022-12-18T05:07:29;101677.00;;;-5.40
24639;BMP180;1641;51.306;12.384;2022-12-18T05:09:54;101677.00;;;-5.30
24639;BMP180;1641;51.306;12.384;2022-12-18T05:12:22;101678.00;;;-5.30
24639;BMP180;1641;51.306;12.384;2022-12-18T05:14:49;101684.00;;;-5.20
24639;BMP180;1641;51.306;12.384;2022-12-18T05:17:15;101680.00;;;-5.10
24639;BMP180;1641;51.306;12.384;2022-12-18T05:19:40;101666.00;;;-5.00
24639;BMP180;1641;51.306;12.384;2022-12-18T05:22:05;101673.00;;;-5.20
24639;BMP180;1641;51.306;12.384;2022-12-18T05:24:30;101675.00;;;-5.00
24639;BMP180;1641;51.306;12.384;2022-12-18T05:26:59;101688.00;;;-4.90
24639;BMP180;1641;51.306;12.384;2022-12-18T05:29:24;101680.00;;;-4.90
24639;BMP180;1641;51.306;12.384;2022-12-18T05:31:49;101683.00;;;-5.00
24639;BMP180;1641;51.306;12.384;2022-12-18T05:34:15;101689.00;;;-4.90
24639;BMP180;1641;51.306;12.384;2022-12-18T05:36:40;101684.00;;;-5.00
24639;BMP180;1641;51.306;12.384;2022-12-18T05:39:06;101695.00;;;-5.20
24639;BMP180;1641;51.306;12.384;2022-12-18T05:41:32;101696.00;;;-5.00
24639;BMP180;1641;51.306;12.384;2022-12-18T05:43:58;101697.00;;;-5.00
24639;BMP180;1641;51.306;12.384;2022-12-18T05:46:24;101694.00;;;-4.90
24639;BMP180;1641;51.306;12.384;2022-12-18T05:48:49;101702.00;;;-4.80
24639;BMP180;1641;51.306;12.384;2022-12-18T05:51:17;101709.00;;;-5.00
24639;BMP180;1641;51.306;12.384;2022-12-18T05:53:43;101716.00;;;-4.80
24639;BMP180;1641;51.306;12.384;2022-12-18T05:56:16;101714.00;;;-4.90
24639;BMP180;1641;51.306;12.384;2022-12-18T05:58:42;101713.00;;;-5.00
24639;BMP180;1641;51.306;12.384;2022-12-18T06:01:15;101708.00;;;-4.90
24639;BMP180;1641;51.306;12.384;2022-12-18T06:03:40;101724.00;;;-5.00
24639;BMP180;1641;51.306;12.384;2022-12-18T06:06:27;101724.00;;;-4.90
24639;BMP180;1641;51.306;12.384;2022-12-18T06:08:53;101725.00;;;-4.90
24639;BMP180;1641;51.306;12.384;2022-12-18T06:11:24;101723.00;;;-5.00
24639;BMP180;1641;51.306;12.384;2022-12-18T06:13:54;101726.00;;;-5.00
24639;BMP180;1641;51.306;12.384;2022-12-18T06:16:20;101731.00;;;-4.80
24639;BMP180;1641;51.306;12.384;2022-12-18T06:18:45;101727.00;;;-4.80
24639;BMP180;1641;51.306;12.384;2022-12-18T06:21:11;101727.00;;;-4.80
24639;BMP180;1641;51.306;12.384;2022-12-18T06:23:36;101739.00;;;-4.90
24639;BMP180;1641;51.306;12.384;2022-12-18T06:26:06;101739.00;;;-5.00
24639;BMP180;1641;51.306;12.384;2022-12-18T06:28:31;101732.00;;;-5.00
24639;BMP180;1641;51.306;12.384;2022-12-18T06:30:57;101700.00;;;-4.80
24639;BMP180;1641;51.306;12.384;2022-12-18T06:33:26;101725.00;;;-5.00
24639;BMP180;1641;51.306;12.384;2022-12-18T06:35:51;101735.00;;;-5.00
24639;BMP180;1641;51.306;12.384;2022-12-18T06:38:17;101724.00;;;-4.90
24639;BMP180;1641;51.306;12.384;2022-12-18T06:40:42;101745.00;;;-4.90
24639;BMP180;1641;51.306;12.384;2022-12-18T06:43:08;101721.00;;;-4.80
24639;BMP180;1641;51.306;12.384;2022-12-18T06:45:33;101735.00;;;-5.00
24639;BMP180;1641;51.306;12.384;2022-12-18T06:47:58;101738.00;;;-5.10
24639;BMP180;1641;51.306;12.384;2022-12-18T06:50:24;101732.00;;;-5.10
24639;BMP180;1641;51.306;12.384;2022-12-18T06:52:49;101740.00;;;-5.20
24639;BMP180;1641;51.306;12.384;2022-12-18T06:55:14;101737.00;;;-5.50
24639;BMP180;1641;51.306;12.384;2022-12-18T06:57:39;101740.00;;;-5.40
24639;BMP180;1641;51.306;12.384;2022-12-18T07:00:06;101735.00;;;-5.30
24639;BMP180;1641;51.306;12.384;2022-12-18T07:02:32;101746.00;;;-5.10
24639;BMP180;1641;51.306;12.384;2022-12-18T07:04:57;101734.00;;;-4.90
24639;BMP180;1641;51.306;12.384;2022-12-18T07:07:23;101741.00;;;-5.10
24639;BMP180;1641;51.306;12.384;2022-12-18T07:09:51;101715.00;;;-5.20
24639;BMP180;1641;51.306;12.384;2022-12-18T07:12:17;101745.00;;;-5.10
24639;BMP180;1641;51.306;12.384;2022-12-18T07:14:42;101741.00;;;-5.30
24639;BMP180;1641;51.306;12.384;2022-12-18T07:17:07;101750.00;;;-5.50
24639;BMP180;1641;51.306;12.384;2022-12-18T07:19:33;101753.00;;;-5.50
24639;BMP180;1641;51.306;12.384;2022-12-18T07:21:58;101743.00;;;-5.40
24639;BMP180;1641;51.306;12.384;2022-12-18T07:24:24;101754.00;;;-5.20
24639;BMP180;1641;51.306;12.384;2022-12-18T07:26:49;101751.00;;;-4.90
24639;BMP180;1641;51.306;12.384;2022-12-18T07:29:15;101748.00;;;-5.00
24639;BMP180;1641;51.306;12.384;2022-12-18T07:31:40;101740.00;;;-5.20
24639;BMP180;1641;51.306;12.384;2022-12-18T07:34:10;101741.00;;;-5.30
24639;BMP180;1641;51.306;12.384;2022-12-18T07:36:35;101755.00;;;-5.20
24639;BMP180;1641;51.306;12.384;2022-12-18T07:39:00;101747.00;;;-5.00
24639;BMP180;1641;51.306;12.384;2022-12-18T07:41:26;101626.00;;;-4.80
24639;BMP180;1641;51.306;12.384;2022-12-18T07:43:51;101764.00;;;-5.00
24639;BMP180;1641;51.306;12.384;2022-12-18T07:46:17;101766.00;;;-4.90
24639;BMP180;1641;51.306;12.384;2022-12-18T07:48:43;101769.00;;;-4.90
24639;BMP180;1641;51.306;12.384;2022-12-18T07:51:12;101776.00;;;-5.00
24639;BMP180;1641;51.306;12.384;2022-12-18T07:53:38;101789.00;;;-4.80
24639;BMP180;1641;51.306;12.384;2022-12-18T07:56:07;101780.00;;;-4.70
24639;BMP180;1641;51.306;12.384;2022-12-18T07:58:33;101778.00;;;-4.80
24639;BMP180;1641;51.306;12.384;2022-12-18T08:01:11;101779.00;;;-4.60
24639;BMP180;1641;51.306;12.384;2022-12-18T08:03:39;101777.00;;;-4.50
24639;BMP180;1641;51.306;12.384;2022-12-18T08:06:06;101800.00;;;-5.30
24639;BMP180;1641;51.306;12.384;2022-12-18T08:08:32;101788.00;;;-4.90
24639;BMP180;1641;51.306;12.384;2022-12-18T08:10:58;101781.00;;;-4.90
24639;BMP180;1641;51.306;12.384;2022-12-18T08:13:24;101790.00;;;-5.00
24639;BMP180;1641;51.306;12.384;2022-12-18T08:16:01;101785.00;;;-4.30
24639;BMP180;1641;51.306;12.384;2022-12-18T08:18:35;101793.00;;;-2.50
24639;BMP180;1641;51.306;12.384;2022-12-18T08:21:08;101800.00;;;-0.90
24639;BMP180;1641;51.306;12.384;2022-12-18T08:23:34;101798.00;;;-0.60
24639;BMP180;1641;51.306;12.384;2022-12-18T08:26:00;101809.00;;;0.40
24639;BMP180;1641;51.306;12.384;2022-12-18T08:28:25;101814.00;;;1.10
24639;BMP180;1641;51.306;12.384;2022-12-18T08:30:51;101814.00;;;2.00
24639;BMP180;1641;51.306;12.384;2022-12-18T08:33:20;101809.00;;;1.30
24639;BMP180;1641;51.306;12.384;2022-12-18T08:35:48;101820.00;;;1.80
24639;BMP180;1641;51.306;12.384;2022-12-18T08:38:13;101822.00;;;0.50
24639;BMP180;1641;51.306;12.384;2022-12-18T08:40:39;101818.00;;;1.60
24639;BMP180;1641;51.306;12.384;2022-12-18T08:43:04;101823.00;;;0.80
24639;BMP180;1641;51.306;12.384;2022-12-18T08:45:47;101791.00;;;1.40
24639;BMP180;1641;51.306;12.384;2022-12-18T08:48:16;101813.00;;;1.20
24639;BMP180;1641;51.306;12.384;2022-12-18T08:50:58;101819.00;;;1.40
24639;BMP180;1641;51.306;12.384;2022-12-18T08:53:23;101825.00;;;0.90
24639;BMP180;1641;51.306;12.384;2022-12-18T08:55:49;101823.00;;;1.60
24639;BMP180;1641;51.306;12.384;2022-12-18T08:58:14;101823.00;;;2.50
24639;BMP180;1641;51.306;12.384;2022-12-18T09:00:40;101825.00;;;1.80
24639;BMP180;1641;51.306;12.384;2022-12-18T09:03:17;101832.00;;;2.10
24639;BMP180;1641;51.306;12.384;2022-12-18T09:05:45;101835.00;;;2.50
24639;BMP180;1641;51.306;12.384;2022-12-18T09:08:10;101847.00;;;3.30
24639;BMP180;1641;51.306;12.384;2022-12-18T09:10:44;101834.00;;;2.20
24639;BMP180;1641;51.306;12.384;2022-12-18T09:13:11;101827.00;;;-0.40
24639;BMP180;1641;51.306;12.384;2022-12-18T09:16:02;101832.00;;;-1.60
24639;BMP180;1641;51.306;12.384;2022-12-18T09:18:26;101830.00;;;-3.30
24639;BMP180;1641;51.306;12.384;2022-12-18T09:20:51;101834.00;;;-3.10
24639;BMP180;1641;51.306;12.384;2022-12-18T09:23:18;101804.00;;;-3.20
24639;BMP180;1641;51.306;12.384;2022-12-18T09:25:43;101829.00;;;-3.60
24639;BMP180;1641;51.306;12.384;2022-12-18T09:28:17;101830.00;;;-3.50
24639;BMP180;1641;51.306;12.384;2022-12-18T09:30:47;101822.00;;;-4.00
24639;BMP180;1641;51.306;12.384;2022-12-18T09:33:17;101811.00;;;-4.00
24639;BMP180;1641;51.306;12.384;2022-12-18T09:35:43;101773.00;;;-4.10
24639;BMP180;1641;51.306;12.384;2022-12-18T09:38:15;101807.00;;;-4.10
24639;BMP180;1641;51.306;12.384;2022-12-18T09:40:47;101807.00;;;-4.10
24639;BMP180;1641;51.306;12.384;2022-12-18T09:43:28;101805.00;;;-3.70
24639;BMP180;1641;51.306;12.384;2022-12-18T09:45:58;101787.00;;;-4.00
24639;BMP180;1641;51.306;12.384;2022-12-18T09:48:28;101758.00;;;-4.30
24639;BMP180;1641;51.306;12.384;2022-12-18T09:51:05;101753.00;;;-4.00
24639;BMP180;1641;51.306;12.384;2022-12-18T09:53:37;101782.00;;;-3.80
24639;BMP180;1641;51.306;12.384;2022-12-18T09:56:04;101779.00;;;-3.90
24639;BMP180;1641;51.306;12.384;2022-12-18T09:58:39;101774.00;;;-3.90
24639;BMP180;1641;51.306;12.384;2022-12-18T10:01:12;101746.00;;;-3.60
24639;BMP180;1641;51.306;12.384;2022-12-18T10:03:39;101775.00;;;-3.60
24639;BMP180;1641;51.306;12.384;2022-12-18T10:11:26;101760.00;;;-3.50
24639;BMP180;1641;51.306;12.384;2022-12-18T10:13:57;101754.00;;;-3.50
24639;BMP180;1641;51.306;12.384;2022-12-18T10:21:58;101741.00;;;-3.40
24639;BMP180;1641;51.306;12.384;2022-12-18T10:27:14;101742.00;;;-3.30
24639;BMP180;1641;51.306;12.384;2022-12-18T10:29:41;101746.00;;;-2.90
24639;BMP180;1641;51.306;12.384;2022-12-18T10:32:07;101741.00;;;-2.90
24639;BMP180;1641;51.306;12.384;2022-12-18T10:34:34;101744.00;;;-3.40
24639;BMP180;1641;51.306;12.384;2022-12-18T10:37:06;101745.00;;;-3.70
24639;BMP180;1641;51.306;12.384;2022-12-18T10:39:37;101740.00;;;-3.60
24639;BMP180;1641;51.306;12.384;2022-12-18T10:42:14;101748.00;;;-3.70
24639;BMP180;1641;51.306;12.384;2022-12-18T10:44:41;101737.00;;;-3.60
24639;BMP180;1641;51.306;12.384;2022-12-18T10:47:17;101738.00;;;-3.40
24639;BMP180;1641;51.306;12.384;2022-12-18T10:49:50;101731.00;;;-3.40
24639;BMP180;1641;51.306;12.384;2022-12-18T10:52:22;101682.00;;;-3.50
24639;BMP180;1641;51.306;12.384;2022-12-18T10:54:53;101728.00;;;-3.20
24639;BMP180;1641;51.306;12.384;2022-12-18T10:59:56;101736.00;;;-2.60
24639;BMP180;1641;51.306;12.384;2022-12-18T11:02:33;101723.00;;;-2.80
24639;BMP180;1641;51.306;12.384;2022-12-18T11:04:59;101723.00;;;-2.60
24639;BMP180;1641;51.306;12.384;2022-12-18T11:07:46;101730.00;;;-2.70
24639;BMP180;1641;51.306;12.384;2022-12-18T11:10:16;101728.00;;;-2.20
24639;BMP180;1641;51.306;12.384;2022-12-18T11:12:42;101742.00;;;-1.90
24639;BMP180;1641;51.306;12.384;2022-12-18T11:15:15;101728.00;;;-2.50
24639;BMP180;1641;51.306;12.384;2022-12-18T11:17:41;101726.00;;;-2.70
24639;BMP180;1641;51.306;12.384;2022-12-18T11:22:58;101715.00;;;-2.30
24639;BMP180;1641;51.306;12.384;2022-12-18T11:25:24;101730.00;;;-2.20
24639;BMP180;1641;51.306;12.384;2022-12-18T11:27:53;101744.00;;;-2.00
24639;BMP180;1641;51.306;12.384;2022-12-18T11:30:33;101742.00;;;-2.60
24639;BMP180;1641;51.306;12.384;2022-12-18T11:33:11;101672.00;;;-2.60
24639;BMP180;1641;51.306;12.384;2022-12-18T11:35:51;101750.00;;;-2.20
24639;BMP180;1641;51.306;12.384;2022-12-18T11:38:26;101732.00;;;-2.50
24639;BMP180;1641;51.306;12.384;2022-12-18T11:43:37;101751.00;;;-2.90
24639;BMP180;1641;51.306;12.384;2022-12-18T11:46:12;101742.00;;;-2.60
24639;BMP180;1641;51.306;12.384;2022-12-18T11:48:44;101744.00;;;-2.70
24639;BMP180;1641;51.306;12.384;2022-12-18T11:51:17;101749.00;;;-2.70
24639;BMP180;1641;51.306;12.384;2022-12-18T11:53:46;101754.00;;;-2.60
24639;BMP180;1641;51.306;12.384;2022-12-18T12:06:53;101743.00;;;-1.90
24639;BMP180;1641;51.306;12.384;2022-12-18T12:12:13;101742.00;;;-1.60
24639;BMP180;1641;51.306;12.384;2022-12-18T12:20:13;101724.00;;;-1.70
24639;BMP180;1641;51.306;12.384;2022-12-18T12:22:56;101711.00;;;-1.80
24639;BMP180;1641;51.306;12.384;2022-12-18T12:33:39;101667.00;;;-1.90
24639;BMP180;1641;51.306;12.384;2022-12-18T12:36:08;101652.00;;;-2.10
24639;BMP180;1641;51.306;12.384;2022-12-18T12:38:43;101686.00;;;-2.20
24639;BMP180;1641;51.306;12.384;2022-12-18T12:41:17;101696.00;;;-2.10
24639;BMP180;1641;51.306;12.384;2022-12-18T12:44:05;101709.00;;;-1.90
24639;BMP180;1641;51.306;12.384;2022-12-18T12:46:36;101704.00;;;-2.00
24639;BMP180;1641;51.306;12.384;2022-12-18T12:49:07;101698.00;;;-2.30
24639;BMP180;1641;51.306;12.384;2022-12-18T12:51:37;101707.00;;;-1.90
24639;BMP180;1641;51.306;12.384;2022-12-18T12:54:06;101711.00;;;-1.70
24639;BMP180;1641;51.306;12.384;2022-12-18T12:59:34;101695.00;;;-1.30
24639;BMP180;1641;51.306;12.384;2022-12-18T13:02:17;101698.00;;;-1.90
24639;BMP180;1641;51.306;12.384;2022-12-18T13:08:02;101664.00;;;-2.20
24639;BMP180;1641;51.306;12.384;2022-12-18T13:10:37;101684.00;;;-2.10
24639;BMP180;1641;51.306;12.384;2022-12-18T13:13:13;101650.00;;;-2.20
24639;BMP180;1641;51.306;12.384;2022-12-18T13:15:46;101667.00;;;-1.70
24639;BMP180;1641;51.306;12.384;2022-12-18T13:18:22;101652.00;;;-1.30
24639;BMP180;1641;51.306;12.384;2022-12-18T13:20:51;101661.00;;;-1.40
24639;BMP180;1641;51.306;12.384;2022-12-18T13:25:47;101662.00;;;-2.10
24639;BMP180;1641;51.306;12.384;2022-12-18T13:28:18;101673.00;;;-2.00
24639;BMP180;1641;51.306;12.384;2022-12-18T13:38:33;101578.00;;;-1.20
24639;BMP180;1641;51.306;12.384;2022-12-18T13:41:24;101680.00;;;-1.00
24639;BMP180;1641;51.306;12.384;2022-12-18T13:43:54;101671.00;;;-1.10
24639;BMP180;1641;51.306;12.384;2022-12-18T13:46:26;101676.00;;;-1.20
24639;BMP180;1641;51.306;12.384;2022-12-18T13:51:26;101680.00;;;-1.30
24639;BMP180;1641;51.306;12.384;2022-12-18T13:53:58;101663.00;;;-1.50
24639;BMP180;1641;51.306;12.384;2022-12-18T13:56:27;101654.00;;;-1.30
24639;BMP180;1641;51.306;12.384;2022-12-18T13:59:16;101643.00;;;-1.50
24639;BMP180;1641;51.306;12.384;2022-12-18T14:01:51;101632.00;;;-1.30
24639;BMP180;1641;51.306;12.384;2022-12-18T14:04:35;101633.00;;;-1.20
24639;BMP180;1641;51.306;12.384;2022-12-18T14:07:15;101651.00;;;-1.60
24639;BMP180;1641;51.306;12.384;2022-12-18T14:09:43;101650.00;;;-1.60
24639;BMP180;1641;51.306;12.384;2022-12-18T14:12:16;101657.00;;;-1.60
24639;BMP180;1641;51.306;12.384;2022-12-18T14:15:00;101650.00;;;-2.20
24639;BMP180;1641;51.306;12.384;2022-12-18T14:17:26;101635.00;;;-2.40
24639;BMP180;1641;51.306;12.384;2022-12-18T14:19:51;101639.00;;;-2.50
24639;BMP180;1641;51.306;12.384;2022-12-18T14:22:19;101642.00;;;-2.50
24639;BMP180;1641;51.306;12.384;2022-12-18T14:24:46;101614.00;;;-2.70
24639;BMP180;1641;51.306;12.384;2022-12-18T14:27:23;101640.00;;;-2.60
24639;BMP180;1641;51.306;12.384;2022-12-18T14:29:50;101636.00;;;-2.10
24639;BMP180;1641;51.306;12.384;2022-12-18T14:32:18;101644.00;;;-2.30
24639;BMP180;1641;51.306;12.384;2022-12-18T14:34:49;101647.00;;;-2.10
24639;BMP180;1641;51.306;12.384;2022-12-18T14:37:17;101637.00;;;-2.10
24639;BMP180;1641;51.306;12.384;2022-12-18T14:40:04;101613.00;;;-1.70
24639;BMP180;1641;51.306;12.384;2022-12-18T14:42:30;101635.00;;;-1.90
24639;BMP180;1641;51.306;12.384;2022-12-18T14:47:59;101626.00;;;-2.30
24639;BMP180;1641;51.306;12.384;2022-12-18T14:50:25;101628.00;;;-2.20
24639;BMP180;1641;51.306;12.384;2022-12-18T14:52:51;101618.00;;;-2.40
24639;BMP180;1641;51.306;12.384;2022-12-18T14:55:18;101630.00;;;-2.10
24639;BMP180;1641;51.306;12.384;2022-12-18T14:57:44;101621.00;;;-2.20
24639;BMP180;1641;51.306;12.384;2022-12-18T15:00:19;101626.00;;;-2.00
24639;BMP180;1641;51.306;12.384;2022-12-18T15:02:50;101618.00;;;-2.30
24639;BMP180;1641;51.306;12.384;2022-12-18T15:05:29;101608.00;;;-2.30
24639;BMP180;1641;51.306;12.384;2022-12-18T15:07:58;101595.00;;;-2.20
24639;BMP180;1641;51.306;12.384;2022-12-18T15:10:29;101597.00;;;-2.10
24639;BMP180;1641;51.306;12.384;2022-12-18T15:20:46;101615.00;;;-2.10
24639;BMP180;1641;51.306;12.384;2022-12-18T15:28:24;101616.00;;;-1.90
24639;BMP180;1641;51.306;12.384;2022-12-18T15:33:41;101623.00;;;-2.10
24639;BMP180;1641;51.306;12.384;2022-12-18T15:36:12;101628.00;;;-2.20
24639;BMP180;1641;51.306;12.384;2022-12-18T15:38:37;101631.00;;;-1.90
24639;BMP180;1641;51.306;12.384;2022-12-18T15:41:22;101601.00;;;-2.30
24639;BMP180;1641;51.306;12.384;2022-12-18T15:43:52;101624.00;;;-2.30
24639;BMP180;1641;51.306;12.384;2022-12-18T15:46:23;101612.00;;;-2.50
24639;BMP180;1641;51.306;12.384;2022-12-18T15:48:49;101615.00;;;-2.40
24639;BMP180;1641;51.306;12.384;2022-12-18T15:51:35;101624.00;;;-2.50
24639;BMP180;1641;51.306;12.384;2022-12-18T15:54:03;101563.00;;;-2.50
24639;BMP180;1641;51.306;12.384;2022-12-18T15:56:29;101613.00;;;-2.60
24639;BMP180;1641;51.306;12.384;2022-12-18T15:59:16;101582.00;;;-2.80
24639;BMP180;1641;51.306;12.384;2022-12-18T16:01:44;101613.00;;;-2.90